EST,Max TemperatureF,Mean TemperatureF,Min TemperatureF,Max Dew PointF,MeanDew PointF,Min DewpointF,Max Humidity, Mean Humidity, Min Humidity, Max Sea Level PressureIn, Mean Sea Level PressureIn, Min Sea Level PressureIn, Max VisibilityMiles, Mean VisibilityMiles, Min VisibilityMiles, Max Wind SpeedMPH, Mean Wind SpeedMPH, Max Gust SpeedMPH,PrecipitationIn, CloudCover, Events, WindDirDegrees
2013-12-1,54,45,35,35,30,26,89,70,50,30.16,30.07,29.98,10,10,6,15,8,23,0.00,3,,232
2013-12-2,47,40,33,36,34,30,96,81,65,29.96,29.89,29.83,6,4,2,10,4,13,0.07,7,Rain,66
2013-12-3,51,43,34,45,40,34,100,90,80,29.91,29.84,29.81,7,3,0,12,6,13,T,7,Fog-Rain,135
2013-12-4,62,52,42,55,50,41,100,89,78,29.89,29.81,29.73,10,7,3,17,10,24,T,7,,150
2013-12-5,62,47,31,56,41,27,89,83,76,30.19,29.95,29.75,10,7,2,20,12,23,0.07,8,Rain-Snow,289
2013-12-6,31,28,25,28,25,23,92,88,84,30.42,30.25,30.14,9,2,0,16,9,21,0.51,8,Fog-Rain-Snow,346
2013-12-7,26,20,13,22,15,10,88,75,62,30.64,30.56,30.40,10,9,6,10,6,15,0.00,5,,341
2013-12-8,31,22,13,30,20,11,100,86,71,30.56,30.26,30.02,10,4,0,15,9,18,0.03,8,Snow,94
2013-12-9,32,28,23,30,24,15,100,84,68,30.24,30.11,29.96,10,8,0,22,13,26,T,8,,246
2013-12-10,25,20,15,18,13,8,84,70,55,30.36,30.20,30.13,10,6,1,31,13,41,0.12,4,Snow,260
2013-12-11,32,22,11,20,14,7,80,72,63,30.53,30.39,30.29,10,9,7,22,10,25,T,5,,251
2013-12-12,20,11,1,9,2,-3,86,63,39,30.56,30.48,30.35,10,10,7,20,10,24,0.00,5,,242
2013-12-13,36,26,16,32,18,4,96,74,51,30.34,30.25,30.16,10,8,0,22,8,29,0.11,6,Fog-Snow,202
2013-12-14,36,31,26,35,31,24,100,95,89,30.17,29.94,29.72,6,2,0,21,10,26,0.45,8,Fog-Rain-Snow,102
2013-12-15,27,25,22,25,19,13,92,80,68,30.14,30.00,29.86,10,8,2,28,15,35,T,8,Snow,267
2013-12-16,30,24,18,27,20,14,100,87,74,30.17,30.09,29.97,7,3,1,14,7,17,0.08,8,Snow,91
2013-12-17,31,28,24,28,23,21,92,85,78,30.16,30.06,29.96,8,6,1,20,12,25,T,8,Snow,256
2013-12-18,35,26,17,22,16,13,88,68,47,30.28,30.18,30.06,10,9,6,21,12,29,0.00,3,,220
2013-12-19,49,42,34,39,29,19,71,61,51,30.08,30.03,29.95,10,10,10,20,14,25,0.00,6,,196
2013-12-20,59,54,49,56,46,37,100,80,59,29.94,29.87,29.80,10,7,1,22,15,29,0.03,8,Rain,193
2013-12-21,65,56,47,63,53,45,100,94,87,29.80,29.69,29.47,10,4,0,26,10,33,2.46,8,Rain,233
2013-12-22,62,50,37,59,46,33,97,86,74,30.06,29.78,29.53,10,9,2,33,17,43,0.48,7,Rain,239
2013-12-23,37,32,26,32,23,16,82,73,63,30.40,30.27,30.07,10,10,10,21,13,25,T,8,Rain,283
2013-12-24,26,19,11,19,11,5,84,76,67,30.59,30.48,30.34,10,8,2,21,9,24,0.01,5,Snow,295
2013-12-25,31,24,16,25,14,10,80,65,49,30.52,30.36,30.20,10,10,10,17,10,24,0.00,8,,185
2013-12-26,37,33,28,26,21,17,85,66,47,30.36,30.28,30.15,10,10,9,24,14,29,0.00,5,,243
2013-12-27,46,39,31,29,26,23,72,61,49,30.41,30.34,30.27,10,10,10,18,11,25,0.00,2,,216
2013-12-28,53,44,35,32,29,27,75,61,46,30.26,30.18,30.02,10,10,10,18,12,23,0.00,4,,201
2013-12-29,44,37,30,40,33,25,92,73,53,30.04,29.89,29.78,10,7,3,22,11,29,0.16,8,Rain,237
2013-12-30,30,26,22,25,18,14,85,77,68,30.27,30.19,30.03,10,7,2,18,8,23,T,8,Snow,310
2013-12-31,30,26,21,18,15,12,77,68,58,30.39,30.28,30.14,10,9,1,23,12,29,T,7,Snow,252